Aeroporto :
LOGIN :

Iscrizione | Disclaimer

   EN    FR    IT 

 










Sommario :    VFR   VFR Marginale   IFR   IFR Intensivo   IFR Molto Intensivo
Visibilità : 
Base nubi : 
>= 8 km
>= 3000ft
5 / 8 km
1000 / 3000 ft
1500m / 5 km
500 / 1000 ft
800 / 1500m
200 / 500 ft
< 800m
< 200 ft
Simboli :   Temporali  Nebbia  Neve Forte  Precipitazioni Forti  Vento > 20 kt
SIGMETs :   Varie  Temporali  Ghiacco  Turbolenza  Onda orograficha  Ceneri Vulcaniche






- Altitudine del aeroporto : 17 ft
- Codice IATA : GRQ


EHGG - Groningen Eelde

ULTIMO METAR :
  • 091755Z AUTO 08006KT 050V110 5000 -DZ FEW003 SCT007 BKN010 14/14 Q1011 REDZ TEMPO 3500 -DZ BKN006

METARs OBSOLETI :
  • 091725Z AUTO 06006KT 030V090 6000 DZ FEW003 SCT005 BKN010 14/14 Q1011 TEMPO 3500 -DZ BKN006
  • 091655Z AUTO 06006KT 5000 DZ FEW002 BKN004 BKN006 14/14 Q1011 TEMPO 3500 -DZ BKN006
  • 091625Z AUTO 07006KT 4300 BR SCT003 BKN005 BKN007 14/13 Q1011 TEMPO 6000 -DZ BKN004
  • 091555Z AUTO 07007KT 4000 DZ FEW003 BKN006 OVC007 14/14 Q1011 REDZ TEMPO 6000 -DZ BKN004
  • 091525Z AUTO 07006KT 030V100 4400 DZ SCT002 SCT004 BKN005 14/13 Q1011 TEMPO 3500 -DZ BKN004

TAF COR TAF EHGG
Valido dal 09 a 18 ore il 11 a 00 ore UTC


091716Z 0918/1024 06007KT 6000 RADZ BKN007
BECMG 0919/0922 3500 DZRA BR BKN004
PROB30
TEMPO 1000/1008 2000 DZ BKN002
BECMG 1008/1010 36010KT 9999 NSW BKN018
BECMG 1015/1018 33007KT



MetMap, La meteo Aeronautica in un colpo d'occhio ! - Copyright ORBIFLY Dicembre 2007 - Disclaimer

ORBIFLY MET'MAP TEAM :

Programmazione e sviluppo : Alexandra Zaïnal
Concezione : Baudouin d'Aumeries
Aiuto per la programmazione : Marc-Olivier Méhu
Supporto tecnico e logistico : Manuel Goepfert
Aiuto per la traduzione : Arnaldo La Scala

Contatto : metmap@orbifly.com




FONTI E CREDITI :

   NOAA